sensor_id;sensor_type;location;lat;lon;timestamp;P1;durP1;ratioP1;P2;durP2;ratioP2
45049;SDS011;61798;48.048;-1.928;2022-08-19T04:50:13;5.85;;;3.80;;
45049;SDS011;61798;48.048;-1.928;2022-08-19T04:52:19;4.93;;;3.55;;
45049;SDS011;61798;48.048;-1.928;2022-08-19T04:54:25;5.15;;;3.65;;
45049;SDS011;61798;48.048;-1.928;2022-08-19T04:56:32;4.93;;;3.38;;
45049;SDS011;61798;48.048;-1.928;2022-08-19T04:58:39;4.32;;;3.58;;
45049;SDS011;61798;48.048;-1.928;2022-08-19T05:00:47;5.20;;;3.80;;
45049;SDS011;61798;48.048;-1.928;2022-08-19T05:02:53;4.95;;;3.55;;
45049;SDS011;61798;48.048;-1.928;2022-08-19T05:04:59;5.15;;;3.80;;
45049;SDS011;61798;48.048;-1.928;2022-08-19T05:07:09;5.40;;;3.80;;
45049;SDS011;61798;48.048;-1.928;2022-08-19T05:09:16;6.07;;;3.78;;
45049;SDS011;61798;48.048;-1.928;2022-08-19T05:11:25;6.15;;;3.47;;
45049;SDS011;61798;48.048;-1.928;2022-08-19T05:13:34;6.43;;;4.00;;
45049;SDS011;61798;48.048;-1.928;2022-08-19T05:15:42;6.88;;;3.45;;
45049;SDS011;61798;48.048;-1.928;2022-08-19T05:17:49;4.10;;;3.40;;
45049;SDS011;61798;48.048;-1.928;2022-08-19T05:20:14;6.65;;;3.92;;
45049;SDS011;61798;48.048;-1.928;2022-08-19T05:22:40;6.32;;;3.70;;
45049;SDS011;61798;48.048;-1.928;2022-08-19T05:24:47;7.28;;;3.75;;
45049;SDS011;61798;48.048;-1.928;2022-08-19T05:26:55;6.40;;;3.70;;
45049;SDS011;61798;48.048;-1.928;2022-08-19T05:29:04;6.10;;;3.60;;
45049;SDS011;61798;48.048;-1.928;2022-08-19T05:31:12;4.30;;;3.40;;
45049;SDS011;61798;48.048;-1.928;2022-08-19T05:33:19;5.70;;;3.55;;
45049;SDS011;61798;48.048;-1.928;2022-08-19T05:35:25;4.22;;;3.45;;
45049;SDS011;61798;48.048;-1.928;2022-08-19T05:37:32;5.93;;;3.80;;
45049;SDS011;61798;48.048;-1.928;2022-08-19T05:39:39;5.28;;;3.70;;
45049;SDS011;61798;48.048;-1.928;2022-08-19T05:41:48;6.05;;;3.67;;
45049;SDS011;61798;48.048;-1.928;2022-08-19T05:44:03;5.25;;;3.28;;
45049;SDS011;61798;48.048;-1.928;2022-08-19T05:46:18;5.05;;;3.38;;
45049;SDS011;61798;48.048;-1.928;2022-08-19T05:48:26;4.10;;;3.13;;
45049;SDS011;61798;48.048;-1.928;2022-08-19T05:50:35;5.30;;;3.30;;
45049;SDS011;61798;48.048;-1.928;2022-08-19T05:52:42;7.35;;;3.60;;
45049;SDS011;61798;48.048;-1.928;2022-08-19T05:54:49;5.80;;;3.50;;
45049;SDS011;61798;48.048;-1.928;2022-08-19T05:56:57;4.80;;;3.58;;
45049;SDS011;61798;48.048;-1.928;2022-08-19T05:59:05;4.45;;;3.40;;
45049;SDS011;61798;48.048;-1.928;2022-08-19T06:01:17;6.25;;;3.50;;
45049;SDS011;61798;48.048;-1.928;2022-08-19T06:03:25;7.45;;;3.55;;
45049;SDS011;61798;48.048;-1.928;2022-08-19T06:05:32;6.25;;;3.67;;
45049;SDS011;61798;48.048;-1.928;2022-08-19T06:07:39;5.35;;;3.63;;
45049;SDS011;61798;48.048;-1.928;2022-08-19T06:09:47;5.18;;;3.65;;
45049;SDS011;61798;48.048;-1.928;2022-08-19T06:11:55;5.43;;;3.55;;
45049;SDS011;61798;48.048;-1.928;2022-08-19T06:14:09;5.60;;;3.65;;
45049;SDS011;61798;48.048;-1.928;2022-08-19T06:16:25;5.97;;;3.58;;
45049;SDS011;61798;48.048;-1.928;2022-08-19T06:18:32;7.03;;;3.80;;
45049;SDS011;61798;48.048;-1.928;2022-08-19T06:20:38;6.45;;;3.65;;
45049;SDS011;61798;48.048;-1.928;2022-08-19T06:22:47;6.20;;;3.97;;
45049;SDS011;61798;48.048;-1.928;2022-08-19T06:24:57;6.18;;;3.97;;
45049;SDS011;61798;48.048;-1.928;2022-08-19T06:27:04;8.38;;;4.18;;
45049;SDS011;61798;48.048;-1.928;2022-08-19T06:29:15;9.35;;;3.97;;
45049;SDS011;61798;48.048;-1.928;2022-08-19T06:31:32;5.93;;;3.65;;
45049;SDS011;61798;48.048;-1.928;2022-08-19T06:33:41;7.72;;;3.95;;
45049;SDS011;61798;48.048;-1.928;2022-08-19T06:35:49;4.75;;;3.17;;
45049;SDS011;61798;48.048;-1.928;2022-08-19T06:37:56;7.70;;;4.07;;
45049;SDS011;61798;48.048;-1.928;2022-08-19T06:40:03;7.55;;;3.90;;
45049;SDS011;61798;48.048;-1.928;2022-08-19T06:42:12;7.38;;;4.00;;
45049;SDS011;61798;48.048;-1.928;2022-08-19T06:44:23;9.32;;;4.63;;
45049;SDS011;61798;48.048;-1.928;2022-08-19T06:46:32;6.85;;;4.30;;
45049;SDS011;61798;48.048;-1.928;2022-08-19T06:48:39;7.85;;;4.60;;
45049;SDS011;61798;48.048;-1.928;2022-08-19T06:50:46;6.90;;;4.30;;
45049;SDS011;61798;48.048;-1.928;2022-08-19T06:52:54;7.15;;;4.30;;
45049;SDS011;61798;48.048;-1.928;2022-08-19T06:55:03;7.10;;;4.72;;
45049;SDS011;61798;48.048;-1.928;2022-08-19T06:57:10;8.65;;;4.25;;
45049;SDS011;61798;48.048;-1.928;2022-08-19T06:59:22;7.88;;;4.53;;
45049;SDS011;61798;48.048;-1.928;2022-08-19T07:01:41;9.10;;;4.28;;
45049;SDS011;61798;48.048;-1.928;2022-08-19T07:03:53;10.50;;;4.32;;
45049;SDS011;61798;48.048;-1.928;2022-08-19T07:06:10;7.72;;;4.22;;
45049;SDS011;61798;48.048;-1.928;2022-08-19T07:08:21;9.27;;;4.80;;
45049;SDS011;61798;48.048;-1.928;2022-08-19T07:10:28;9.05;;;4.65;;
45049;SDS011;61798;48.048;-1.928;2022-08-19T07:12:39;8.88;;;4.85;;
45049;SDS011;61798;48.048;-1.928;2022-08-19T07:14:47;12.85;;;4.97;;
45049;SDS011;61798;48.048;-1.928;2022-08-19T07:16:56;7.55;;;4.50;;
45049;SDS011;61798;48.048;-1.928;2022-08-19T07:19:03;8.63;;;4.10;;
45049;SDS011;61798;48.048;-1.928;2022-08-19T07:21:20;6.75;;;4.45;;
45049;SDS011;61798;48.048;-1.928;2022-08-19T07:23:29;11.25;;;4.78;;
45049;SDS011;61798;48.048;-1.928;2022-08-19T07:25:38;10.50;;;4.57;;
45049;SDS011;61798;48.048;-1.928;2022-08-19T07:27:48;9.57;;;5.07;;
45049;SDS011;61798;48.048;-1.928;2022-08-19T07:29:55;12.40;;;4.75;;
45049;SDS011;61798;48.048;-1.928;2022-08-19T07:32:02;11.95;;;5.20;;
45049;SDS011;61798;48.048;-1.928;2022-08-19T07:34:13;11.85;;;5.15;;
45049;SDS011;61798;48.048;-1.928;2022-08-19T07:36:22;8.50;;;4.47;;
45049;SDS011;61798;48.048;-1.928;2022-08-19T07:38:32;7.72;;;4.70;;
45049;SDS011;61798;48.048;-1.928;2022-08-19T07:40:41;10.55;;;4.35;;
45049;SDS011;61798;48.048;-1.928;2022-08-19T07:42:49;8.00;;;4.10;;
45049;SDS011;61798;48.048;-1.928;2022-08-19T07:44:57;11.02;;;4.70;;
45049;SDS011;61798;48.048;-1.928;2022-08-19T07:47:05;8.23;;;4.38;;
45049;SDS011;61798;48.048;-1.928;2022-08-19T07:49:12;12.05;;;4.63;;
45049;SDS011;61798;48.048;-1.928;2022-08-19T07:51:22;9.10;;;4.80;;
45049;SDS011;61798;48.048;-1.928;2022-08-19T07:53:29;9.57;;;4.18;;
45049;SDS011;61798;48.048;-1.928;2022-08-19T07:55:36;9.80;;;4.43;;
45049;SDS011;61798;48.048;-1.928;2022-08-19T07:57:41;12.18;;;4.15;;
45049;SDS011;61798;48.048;-1.928;2022-08-19T07:59:47;8.55;;;3.97;;
45049;SDS011;61798;48.048;-1.928;2022-08-19T08:01:57;10.88;;;4.20;;
45049;SDS011;61798;48.048;-1.928;2022-08-19T08:04:07;7.20;;;4.03;;
45049;SDS011;61798;48.048;-1.928;2022-08-19T08:06:31;11.80;;;4.40;;
45049;SDS011;61798;48.048;-1.928;2022-08-19T08:08:56;12.73;;;4.80;;
45049;SDS011;61798;48.048;-1.928;2022-08-19T08:11:18;11.38;;;4.18;;
45049;SDS011;61798;48.048;-1.928;2022-08-19T08:13:25;9.07;;;4.43;;
45049;SDS011;61798;48.048;-1.928;2022-08-19T08:15:32;14.10;;;5.00;;
45049;SDS011;61798;48.048;-1.928;2022-08-19T08:17:38;11.70;;;4.00;;
45049;SDS011;61798;48.048;-1.928;2022-08-19T08:19:46;10.90;;;3.80;;
45049;SDS011;61798;48.048;-1.928;2022-08-19T08:21:53;9.77;;;4.60;;
45049;SDS011;61798;48.048;-1.928;2022-08-19T08:24:01;7.25;;;4.20;;
45049;SDS011;61798;48.048;-1.928;2022-08-19T08:26:07;8.07;;;3.90;;
45049;SDS011;61798;48.048;-1.928;2022-08-19T08:28:13;10.63;;;4.80;;
45049;SDS011;61798;48.048;-1.928;2022-08-19T08:30:20;8.52;;;3.97;;
45049;SDS011;61798;48.048;-1.928;2022-08-19T08:32:28;11.02;;;4.65;;
45049;SDS011;61798;48.048;-1.928;2022-08-19T08:34:34;9.95;;;3.70;;
45049;SDS011;61798;48.048;-1.928;2022-08-19T08:36:41;9.07;;;3.80;;
45049;SDS011;61798;48.048;-1.928;2022-08-19T08:38:50;11.35;;;3.72;;
45049;SDS011;61798;48.048;-1.928;2022-08-19T08:40:57;12.35;;;3.45;;
45049;SDS011;61798;48.048;-1.928;2022-08-19T08:43:23;10.32;;;3.90;;
45049;SDS011;61798;48.048;-1.928;2022-08-19T08:45:41;7.63;;;3.75;;
45049;SDS011;61798;48.048;-1.928;2022-08-19T08:47:52;5.88;;;3.53;;
45049;SDS011;61798;48.048;-1.928;2022-08-19T08:50:06;8.38;;;3.33;;
45049;SDS011;61798;48.048;-1.928;2022-08-19T08:52:22;8.55;;;3.03;;
45049;SDS011;61798;48.048;-1.928;2022-08-19T08:54:37;7.05;;;2.72;;
45049;SDS011;61798;48.048;-1.928;2022-08-19T08:56:49;7.53;;;2.92;;
45049;SDS011;61798;48.048;-1.928;2022-08-19T08:59:03;7.15;;;2.75;;
45049;SDS011;61798;48.048;-1.928;2022-08-19T09:01:13;8.60;;;3.25;;
45049;SDS011;61798;48.048;-1.928;2022-08-19T09:03:26;7.25;;;3.10;;
45049;SDS011;61798;48.048;-1.928;2022-08-19T09:05:44;6.40;;;3.05;;
45049;SDS011;61798;48.048;-1.928;2022-08-19T09:10:14;8.77;;;3.00;;
45049;SDS011;61798;48.048;-1.928;2022-08-19T09:15:09;10.97;;;3.43;;
45049;SDS011;61798;48.048;-1.928;2022-08-19T09:17:20;5.72;;;2.63;;
45049;SDS011;61798;48.048;-1.928;2022-08-19T09:19:36;6.00;;;2.45;;
45049;SDS011;61798;48.048;-1.928;2022-08-19T09:21:57;5.70;;;2.75;;
45049;SDS011;61798;48.048;-1.928;2022-08-19T09:24:05;6.63;;;2.78;;
45049;SDS011;61798;48.048;-1.928;2022-08-19T09:26:16;4.80;;;2.60;;
45049;SDS011;61798;48.048;-1.928;2022-08-19T09:28:25;5.45;;;2.53;;
45049;SDS011;61798;48.048;-1.928;2022-08-19T09:30:36;8.07;;;2.80;;
45049;SDS011;61798;48.048;-1.928;2022-08-19T09:32:45;5.07;;;2.45;;
45049;SDS011;61798;48.048;-1.928;2022-08-19T09:34:51;6.07;;;2.22;;
45049;SDS011;61798;48.048;-1.928;2022-08-19T09:36:59;7.38;;;2.20;;
45049;SDS011;61798;48.048;-1.928;2022-08-19T09:39:06;6.10;;;2.47;;
45049;SDS011;61798;48.048;-1.928;2022-08-19T09:41:13;4.80;;;2.20;;
45049;SDS011;61798;48.048;-1.928;2022-08-19T09:43:20;5.15;;;2.17;;
45049;SDS011;61798;48.048;-1.928;2022-08-19T09:45:26;4.68;;;2.10;;
45049;SDS011;61798;48.048;-1.928;2022-08-19T09:47:32;5.75;;;2.10;;
45049;SDS011;61798;48.048;-1.928;2022-08-19T09:49:41;3.78;;;1.90;;
45049;SDS011;61798;48.048;-1.928;2022-08-19T09:51:51;6.25;;;1.95;;
45049;SDS011;61798;48.048;-1.928;2022-08-19T09:54:01;10.85;;;2.58;;
45049;SDS011;61798;48.048;-1.928;2022-08-19T09:56:10;5.35;;;1.83;;
45049;SDS011;61798;48.048;-1.928;2022-08-19T09:58:19;3.65;;;1.90;;
45049;SDS011;61798;48.048;-1.928;2022-08-19T10:00:25;7.07;;;2.28;;
45049;SDS011;61798;48.048;-1.928;2022-08-19T10:02:35;5.47;;;2.15;;
45049;SDS011;61798;48.048;-1.928;2022-08-19T10:04:42;5.18;;;1.70;;
45049;SDS011;61798;48.048;-1.928;2022-08-19T10:07:08;3.45;;;1.67;;
45049;SDS011;61798;48.048;-1.928;2022-08-19T10:09:16;6.90;;;1.95;;
45049;SDS011;61798;48.048;-1.928;2022-08-19T10:11:24;2.83;;;1.48;;
45049;SDS011;61798;48.048;-1.928;2022-08-19T10:13:31;3.95;;;1.73;;
45049;SDS011;61798;48.048;-1.928;2022-08-19T10:15:41;6.60;;;1.65;;
45049;SDS011;61798;48.048;-1.928;2022-08-19T10:17:48;5.13;;;1.98;;
45049;SDS011;61798;48.048;-1.928;2022-08-19T10:19:54;4.15;;;1.73;;
45049;SDS011;61798;48.048;-1.928;2022-08-19T10:22:02;5.47;;;1.67;;
45049;SDS011;61798;48.048;-1.928;2022-08-19T10:24:10;3.58;;;1.40;;
45049;SDS011;61798;48.048;-1.928;2022-08-19T10:26:19;4.53;;;1.58;;
45049;SDS011;61798;48.048;-1.928;2022-08-19T10:28:29;7.28;;;1.52;;
45049;SDS011;61798;48.048;-1.928;2022-08-19T10:30:36;2.42;;;1.38;;
45049;SDS011;61798;48.048;-1.928;2022-08-19T10:32:43;8.13;;;1.67;;
45049;SDS011;61798;48.048;-1.928;2022-08-19T10:34:52;5.35;;;1.58;;
45049;SDS011;61798;48.048;-1.928;2022-08-19T10:37:03;2.38;;;1.23;;
45049;SDS011;61798;48.048;-1.928;2022-08-19T10:39:13;3.47;;;1.80;;
45049;SDS011;61798;48.048;-1.928;2022-08-19T10:41:22;2.05;;;1.20;;
45049;SDS011;61798;48.048;-1.928;2022-08-19T10:43:31;2.35;;;1.52;;
45049;SDS011;61798;48.048;-1.928;2022-08-19T10:45:43;4.10;;;1.20;;
45049;SDS011;61798;48.048;-1.928;2022-08-19T10:47:59;1.38;;;0.80;;
45049;SDS011;61798;48.048;-1.928;2022-08-19T10:50:06;2.17;;;1.13;;
45049;SDS011;61798;48.048;-1.928;2022-08-19T10:52:34;1.65;;;0.88;;
45049;SDS011;61798;48.048;-1.928;2022-08-19T10:54:42;2.55;;;1.00;;
45049;SDS011;61798;48.048;-1.928;2022-08-19T10:57:08;2.67;;;1.30;;
45049;SDS011;61798;48.048;-1.928;2022-08-19T10:59:15;1.92;;;1.10;;
45049;SDS011;61798;48.048;-1.928;2022-08-19T11:01:25;4.63;;;1.45;;
45049;SDS011;61798;48.048;-1.928;2022-08-19T11:03:32;4.75;;;1.30;;
45049;SDS011;61798;48.048;-1.928;2022-08-19T11:05:42;3.83;;;1.30;;
45049;SDS011;61798;48.048;-1.928;2022-08-19T11:07:49;3.97;;;1.10;;
45049;SDS011;61798;48.048;-1.928;2022-08-19T11:09:58;4.45;;;1.30;;
45049;SDS011;61798;48.048;-1.928;2022-08-19T11:12:05;3.22;;;1.20;;
45049;SDS011;61798;48.048;-1.928;2022-08-19T11:14:17;1.55;;;1.00;;
45049;SDS011;61798;48.048;-1.928;2022-08-19T11:16:27;1.88;;;1.15;;
45049;SDS011;61798;48.048;-1.928;2022-08-19T11:18:38;3.22;;;1.00;;
45049;SDS011;61798;48.048;-1.928;2022-08-19T11:20:49;2.97;;;1.10;;
45049;SDS011;61798;48.048;-1.928;2022-08-19T11:22:55;2.75;;;1.10;;
45049;SDS011;61798;48.048;-1.928;2022-08-19T11:25:02;2.67;;;1.10;;
45049;SDS011;61798;48.048;-1.928;2022-08-19T11:27:10;2.45;;;0.85;;
45049;SDS011;61798;48.048;-1.928;2022-08-19T11:29:19;3.17;;;1.30;;
45049;SDS011;61798;48.048;-1.928;2022-08-19T11:31:53;3.30;;;1.15;;
45049;SDS011;61798;48.048;-1.928;2022-08-19T11:34:26;3.35;;;1.30;;
45049;SDS011;61798;48.048;-1.928;2022-08-19T11:36:33;2.55;;;1.33;;
45049;SDS011;61798;48.048;-1.928;2022-08-19T11:38:43;6.13;;;1.42;;
45049;SDS011;61798;48.048;-1.928;2022-08-19T11:40:54;2.22;;;1.02;;
45049;SDS011;61798;48.048;-1.928;2022-08-19T11:43:04;1.85;;;0.70;;
45049;SDS011;61798;48.048;-1.928;2022-08-19T11:45:11;2.58;;;1.05;;
45049;SDS011;61798;48.048;-1.928;2022-08-19T11:47:19;0.80;;;0.80;;
45049;SDS011;61798;48.048;-1.928;2022-08-19T11:49:25;3.92;;;1.00;;
45049;SDS011;61798;48.048;-1.928;2022-08-19T11:51:31;5.05;;;1.20;;
45049;SDS011;61798;48.048;-1.928;2022-08-19T11:53:37;2.65;;;0.90;;
45049;SDS011;61798;48.048;-1.928;2022-08-19T11:55:44;5.82;;;0.98;;
45049;SDS011;61798;48.048;-1.928;2022-08-19T11:57:51;0.77;;;0.65;;
45049;SDS011;61798;48.048;-1.928;2022-08-19T11:59:57;4.00;;;1.15;;
45049;SDS011;61798;48.048;-1.928;2022-08-19T12:02:03;2.00;;;1.00;;
45049;SDS011;61798;48.048;-1.928;2022-08-19T12:04:09;1.20;;;0.90;;
45049;SDS011;61798;48.048;-1.928;2022-08-19T12:06:19;1.70;;;0.90;;
45049;SDS011;61798;48.048;-1.928;2022-08-19T12:08:30;3.35;;;1.00;;
45049;SDS011;61798;48.048;-1.928;2022-08-19T12:10:36;2.72;;;1.10;;
45049;SDS011;61798;48.048;-1.928;2022-08-19T12:12:42;4.28;;;1.20;;
45049;SDS011;61798;48.048;-1.928;2022-08-19T12:14:51;2.30;;;0.82;;
45049;SDS011;61798;48.048;-1.928;2022-08-19T12:17:01;2.38;;;1.00;;
45049;SDS011;61798;48.048;-1.928;2022-08-19T12:19:10;2.25;;;1.10;;
45049;SDS011;61798;48.048;-1.928;2022-08-19T12:21:17;4.28;;;1.33;;
45049;SDS011;61798;48.048;-1.928;2022-08-19T12:23:26;2.70;;;0.80;;
45049;SDS011;61798;48.048;-1.928;2022-08-19T12:25:32;3.25;;;1.10;;
45049;SDS011;61798;48.048;-1.928;2022-08-19T12:27:40;2.15;;;0.98;;
45049;SDS011;61798;48.048;-1.928;2022-08-19T12:29:46;4.72;;;1.17;;
45049;SDS011;61798;48.048;-1.928;2022-08-19T12:31:52;4.65;;;1.10;;
45049;SDS011;61798;48.048;-1.928;2022-08-19T12:33:58;4.53;;;1.05;;
45049;SDS011;61798;48.048;-1.928;2022-08-19T12:36:05;4.47;;;1.08;;
45049;SDS011;61798;48.048;-1.928;2022-08-19T12:38:13;2.75;;;0.90;;
45049;SDS011;61798;48.048;-1.928;2022-08-19T12:40:19;1.33;;;1.00;;
45049;SDS011;61798;48.048;-1.928;2022-08-19T12:42:26;2.97;;;1.20;;
45049;SDS011;61798;48.048;-1.928;2022-08-19T12:44:32;5.90;;;1.17;;
45049;SDS011;61798;48.048;-1.928;2022-08-19T12:46:38;4.65;;;1.48;;
45049;SDS011;61798;48.048;-1.928;2022-08-19T12:48:44;25.90;;;2.10;;
45049;SDS011;61798;48.048;-1.928;2022-08-19T12:50:53;17.15;;;1.30;;
45049;SDS011;61798;48.048;-1.928;2022-08-19T12:52:59;1.98;;;0.70;;
45049;SDS011;61798;48.048;-1.928;2022-08-19T12:55:06;2.10;;;0.90;;
45049;SDS011;61798;48.048;-1.928;2022-08-19T12:57:13;3.55;;;0.90;;
45049;SDS011;61798;48.048;-1.928;2022-08-19T12:59:20;4.45;;;1.30;;
45049;SDS011;61798;48.048;-1.928;2022-08-19T13:01:26;2.92;;;1.10;;
45049;SDS011;61798;48.048;-1.928;2022-08-19T13:03:37;2.85;;;0.90;;
45049;SDS011;61798;48.048;-1.928;2022-08-19T13:05:44;3.92;;;1.05;;
45049;SDS011;61798;48.048;-1.928;2022-08-19T13:07:50;2.38;;;1.00;;
45049;SDS011;61798;48.048;-1.928;2022-08-19T13:10:01;3.08;;;1.00;;
45049;SDS011;61798;48.048;-1.928;2022-08-19T13:12:07;4.93;;;1.10;;
45049;SDS011;61798;48.048;-1.928;2022-08-19T13:14:18;1.33;;;0.90;;
45049;SDS011;61798;48.048;-1.928;2022-08-19T13:16:24;3.50;;;0.80;;
45049;SDS011;61798;48.048;-1.928;2022-08-19T13:18:31;3.22;;;0.90;;
45049;SDS011;61798;48.048;-1.928;2022-08-19T13:20:37;3.38;;;1.23;;
45049;SDS011;61798;48.048;-1.928;2022-08-19T13:22:46;1.30;;;0.80;;
45049;SDS011;61798;48.048;-1.928;2022-08-19T13:24:53;4.97;;;0.95;;
45049;SDS011;61798;48.048;-1.928;2022-08-19T13:27:00;1.92;;;0.90;;
45049;SDS011;61798;48.048;-1.928;2022-08-19T13:29:06;1.65;;;0.82;;
45049;SDS011;61798;48.048;-1.928;2022-08-19T13:31:31;1.83;;;0.70;;
45049;SDS011;61798;48.048;-1.928;2022-08-19T13:33:57;2.83;;;0.57;;
45049;SDS011;61798;48.048;-1.928;2022-08-19T13:36:03;22.70;;;1.70;;
45049;SDS011;61798;48.048;-1.928;2022-08-19T13:38:13;42.33;;;3.35;;
45049;SDS011;61798;48.048;-1.928;2022-08-19T13:40:22;48.80;;;2.58;;
45049;SDS011;61798;48.048;-1.928;2022-08-19T13:42:31;52.42;;;3.30;;
45049;SDS011;61798;48.048;-1.928;2022-08-19T13:44:37;34.80;;;3.28;;
45049;SDS011;61798;48.048;-1.928;2022-08-19T13:46:43;25.92;;;2.67;;
45049;SDS011;61798;48.048;-1.928;2022-08-19T13:48:50;26.63;;;2.20;;
45049;SDS011;61798;48.048;-1.928;2022-08-19T13:50:56;13.23;;;1.65;;
45049;SDS011;61798;48.048;-1.928;2022-08-19T13:53:02;12.68;;;1.83;;
45049;SDS011;61798;48.048;-1.928;2022-08-19T13:55:10;31.40;;;2.53;;
45049;SDS011;61798;48.048;-1.928;2022-08-19T13:57:17;16.67;;;1.80;;
45049;SDS011;61798;48.048;-1.928;2022-08-19T13:59:23;16.55;;;1.20;;
45049;SDS011;61798;48.048;-1.928;2022-08-19T14:01:28;20.80;;;1.70;;
45049;SDS011;61798;48.048;-1.928;2022-08-19T14:03:35;30.70;;;1.90;;
45049;SDS011;61798;48.048;-1.928;2022-08-19T14:05:42;13.75;;;1.40;;
45049;SDS011;61798;48.048;-1.928;2022-08-19T14:07:48;8.18;;;0.77;;
45049;SDS011;61798;48.048;-1.928;2022-08-19T14:09:53;31.05;;;2.33;;
45049;SDS011;61798;48.048;-1.928;2022-08-19T14:11:59;8.48;;;1.20;;
45049;SDS011;61798;48.048;-1.928;2022-08-19T14:14:05;19.23;;;1.52;;
45049;SDS011;61798;48.048;-1.928;2022-08-19T14:16:12;17.50;;;1.70;;
45049;SDS011;61798;48.048;-1.928;2022-08-19T14:18:19;17.23;;;1.55;;
45049;SDS011;61798;48.048;-1.928;2022-08-19T14:20:25;17.38;;;1.50;;
45049;SDS011;61798;48.048;-1.928;2022-08-19T14:22:32;13.25;;;1.30;;
45049;SDS011;61798;48.048;-1.928;2022-08-19T14:24:38;2.50;;;1.10;;
45049;SDS011;61798;48.048;-1.928;2022-08-19T14:26:46;5.93;;;1.20;;
45049;SDS011;61798;48.048;-1.928;2022-08-19T14:28:52;2.25;;;1.00;;
45049;SDS011;61798;48.048;-1.928;2022-08-19T14:31:02;1.67;;;0.80;;
45049;SDS011;61798;48.048;-1.928;2022-08-19T14:33:08;2.38;;;1.20;;
45049;SDS011;61798;48.048;-1.928;2022-08-19T14:35:15;1.60;;;1.02;;
45049;SDS011;61798;48.048;-1.928;2022-08-19T14:37:21;1.30;;;0.90;;
45049;SDS011;61798;48.048;-1.928;2022-08-19T14:39:27;1.23;;;0.90;;
45049;SDS011;61798;48.048;-1.928;2022-08-19T14:41:33;2.25;;;1.05;;
45049;SDS011;61798;48.048;-1.928;2022-08-19T14:43:39;4.03;;;1.08;;
45049;SDS011;61798;48.048;-1.928;2022-08-19T14:45:45;2.65;;;1.23;;
45049;SDS011;61798;48.048;-1.928;2022-08-19T14:47:51;2.65;;;1.10;;
45049;SDS011;61798;48.048;-1.928;2022-08-19T14:49:57;2.38;;;1.13;;
45049;SDS011;61798;48.048;-1.928;2022-08-19T14:52:03;2.88;;;1.10;;
45049;SDS011;61798;48.048;-1.928;2022-08-19T14:54:09;2.42;;;1.10;;
45049;SDS011;61798;48.048;-1.928;2022-08-19T14:56:17;2.72;;;0.93;;
45049;SDS011;61798;48.048;-1.928;2022-08-19T14:58:26;1.50;;;0.90;;
45049;SDS011;61798;48.048;-1.928;2022-08-19T15:00:32;1.83;;;0.68;;
45049;SDS011;61798;48.048;-1.928;2022-08-19T15:02:38;1.30;;;0.82;;
45049;SDS011;61798;48.048;-1.928;2022-08-19T15:04:45;2.90;;;1.00;;
45049;SDS011;61798;48.048;-1.928;2022-08-19T15:06:51;1.23;;;0.90;;
45049;SDS011;61798;48.048;-1.928;2022-08-19T15:08:57;1.05;;;0.82;;
45049;SDS011;61798;48.048;-1.928;2022-08-19T15:11:08;1.98;;;0.90;;
45049;SDS011;61798;48.048;-1.928;2022-08-19T15:13:15;2.25;;;1.00;;
45049;SDS011;61798;48.048;-1.928;2022-08-19T15:15:21;1.38;;;0.70;;
45049;SDS011;61798;48.048;-1.928;2022-08-19T15:17:27;1.25;;;0.73;;
45049;SDS011;61798;48.048;-1.928;2022-08-19T15:19:35;1.33;;;0.70;;
45049;SDS011;61798;48.048;-1.928;2022-08-19T15:21:41;1.48;;;0.80;;
45049;SDS011;61798;48.048;-1.928;2022-08-19T15:23:48;2.38;;;0.80;;
45049;SDS011;61798;48.048;-1.928;2022-08-19T15:25:55;1.05;;;0.75;;
45049;SDS011;61798;48.048;-1.928;2022-08-19T15:28:01;0.65;;;0.63;;
45049;SDS011;61798;48.048;-1.928;2022-08-19T15:30:09;0.90;;;0.63;;
45049;SDS011;61798;48.048;-1.928;2022-08-19T15:32:15;1.13;;;0.52;;
45049;SDS011;61798;48.048;-1.928;2022-08-19T15:34:22;1.67;;;0.77;;
45049;SDS011;61798;48.048;-1.928;2022-08-19T15:36:28;2.10;;;1.40;;
45049;SDS011;61798;48.048;-1.928;2022-08-19T15:38:34;3.85;;;1.30;;
45049;SDS011;61798;48.048;-1.928;2022-08-19T15:40:42;3.30;;;1.00;;
45049;SDS011;61798;48.048;-1.928;2022-08-19T15:42:50;1.20;;;0.68;;
45049;SDS011;61798;48.048;-1.928;2022-08-19T15:44:56;1.83;;;0.80;;
45049;SDS011;61798;48.048;-1.928;2022-08-19T15:47:02;1.50;;;0.77;;
45049;SDS011;61798;48.048;-1.928;2022-08-19T15:49:08;2.42;;;1.13;;
45049;SDS011;61798;48.048;-1.928;2022-08-19T15:51:15;1.00;;;0.80;;
45049;SDS011;61798;48.048;-1.928;2022-08-19T15:53:23;1.65;;;1.20;;
45049;SDS011;61798;48.048;-1.928;2022-08-19T15:55:32;2.45;;;1.20;;
45049;SDS011;61798;48.048;-1.928;2022-08-19T15:57:39;2.78;;;1.38;;
45049;SDS011;61798;48.048;-1.928;2022-08-19T16:00:04;2.40;;;1.48;;
45049;SDS011;61798;48.048;-1.928;2022-08-19T16:02:30;1.60;;;1.25;;
45049;SDS011;61798;48.048;-1.928;2022-08-19T16:04:55;3.55;;;1.30;;
45049;SDS011;61798;48.048;-1.928;2022-08-19T16:07:19;3.53;;;1.63;;
45049;SDS011;61798;48.048;-1.928;2022-08-19T16:09:26;5.00;;;1.50;;
45049;SDS011;61798;48.048;-1.928;2022-08-19T16:11:34;4.05;;;1.67;;
45049;SDS011;61798;48.048;-1.928;2022-08-19T16:13:41;5.18;;;1.90;;
45049;SDS011;61798;48.048;-1.928;2022-08-19T16:15:46;2.33;;;1.70;;
45049;SDS011;61798;48.048;-1.928;2022-08-19T16:17:53;3.95;;;1.90;;
45049;SDS011;61798;48.048;-1.928;2022-08-19T16:20:00;3.40;;;1.50;;
45049;SDS011;61798;48.048;-1.928;2022-08-19T16:22:07;3.95;;;1.70;;
45049;SDS011;61798;48.048;-1.928;2022-08-19T16:24:14;3.15;;;1.60;;
45049;SDS011;61798;48.048;-1.928;2022-08-19T16:26:22;4.65;;;1.95;;
45049;SDS011;61798;48.048;-1.928;2022-08-19T16:28:30;5.00;;;1.90;;
45049;SDS011;61798;48.048;-1.928;2022-08-19T16:30:37;2.38;;;1.33;;
45049;SDS011;61798;48.048;-1.928;2022-08-19T16:32:44;4.75;;;2.05;;
45049;SDS011;61798;48.048;-1.928;2022-08-19T16:34:50;4.75;;;2.47;;
45049;SDS011;61798;48.048;-1.928;2022-08-19T16:36:56;2.63;;;2.10;;
45049;SDS011;61798;48.048;-1.928;2022-08-19T16:39:02;4.40;;;2.42;;
45049;SDS011;61798;48.048;-1.928;2022-08-19T16:41:08;3.88;;;2.20;;
45049;SDS011;61798;48.048;-1.928;2022-08-19T16:43:14;4.85;;;2.67;;
45049;SDS011;61798;48.048;-1.928;2022-08-19T16:45:20;4.63;;;2.03;;
45049;SDS011;61798;48.048;-1.928;2022-08-19T16:47:27;5.57;;;2.20;;
45049;SDS011;61798;48.048;-1.928;2022-08-19T16:49:33;4.75;;;2.03;;
45049;SDS011;61798;48.048;-1.928;2022-08-19T16:51:40;7.05;;;2.58;;
45049;SDS011;61798;48.048;-1.928;2022-08-19T16:53:49;6.43;;;2.00;;
45049;SDS011;61798;48.048;-1.928;2022-08-19T16:55:58;9.00;;;2.22;;
45049;SDS011;61798;48.048;-1.928;2022-08-19T16:58:04;3.85;;;2.53;;
45049;SDS011;61798;48.048;-1.928;2022-08-19T17:00:11;4.63;;;2.88;;
45049;SDS011;61798;48.048;-1.928;2022-08-19T17:02:19;5.57;;;2.45;;
45049;SDS011;61798;48.048;-1.928;2022-08-19T17:04:28;14.95;;;2.88;;
45049;SDS011;61798;48.048;-1.928;2022-08-19T17:06:34;4.88;;;2.38;;
45049;SDS011;61798;48.048;-1.928;2022-08-19T17:08:43;6.15;;;2.85;;
45049;SDS011;61798;48.048;-1.928;2022-08-19T17:10:51;8.90;;;3.25;;
45049;SDS011;61798;48.048;-1.928;2022-08-19T17:13:01;7.82;;;3.70;;
45049;SDS011;61798;48.048;-1.928;2022-08-19T17:15:08;8.80;;;3.22;;
45049;SDS011;61798;48.048;-1.928;2022-08-19T17:17:14;9.85;;;3.13;;
45049;SDS011;61798;48.048;-1.928;2022-08-19T17:19:20;8.88;;;3.10;;
45049;SDS011;61798;48.048;-1.928;2022-08-19T17:21:28;7.28;;;3.20;;
45049;SDS011;61798;48.048;-1.928;2022-08-19T17:23:38;7.50;;;2.50;;
45049;SDS011;61798;48.048;-1.928;2022-08-19T17:25:44;10.48;;;3.05;;
45049;SDS011;61798;48.048;-1.928;2022-08-19T17:27:50;9.50;;;2.70;;
45049;SDS011;61798;48.048;-1.928;2022-08-19T17:29:57;6.35;;;2.75;;
45049;SDS011;61798;48.048;-1.928;2022-08-19T17:32:04;6.07;;;2.00;;
45049;SDS011;61798;48.048;-1.928;2022-08-19T17:34:12;7.78;;;2.75;;
45049;SDS011;61798;48.048;-1.928;2022-08-19T17:36:18;12.80;;;2.90;;
45049;SDS011;61798;48.048;-1.928;2022-08-19T17:38:27;13.50;;;2.90;;